createdAt,value
2023-05-06T00:04:16.441Z,2.13
2023-05-06T00:09:21.356Z,2.67
2023-05-06T00:14:25.299Z,2.60
2023-05-06T00:19:29.240Z,2.30
2023-05-06T00:24:34.150Z,2.03
2023-05-06T00:29:37.881Z,2.73
2023-05-06T00:34:41.683Z,2.57
2023-05-06T00:39:46.754Z,2.70
2023-05-06T00:44:50.820Z,2.50
2023-05-06T00:49:54.365Z,3.00
2023-05-06T00:54:59.543Z,2.90
2023-05-06T01:00:03.156Z,2.90
2023-05-06T01:05:09.601Z,3.20
2023-05-06T01:10:21.751Z,3.37
2023-05-06T01:15:34.320Z,3.50
2023-05-06T01:20:39.533Z,3.13
2023-05-06T01:25:44.569Z,3.33
2023-05-06T01:30:57.009Z,3.70
2023-05-06T01:36:11.260Z,4.00
2023-05-06T01:41:17.975Z,4.33
2023-05-06T01:46:23.868Z,4.50
2023-05-06T01:51:27.820Z,4.47
2023-05-06T01:56:33.010Z,4.60
2023-05-06T02:01:36.761Z,4.80
2023-05-06T02:06:40.299Z,4.80
2023-05-06T02:11:45.204Z,5.30
2023-05-06T02:16:48.875Z,5.13
2023-05-06T02:21:52.393Z,5.37
2023-05-06T02:26:57.673Z,4.73
2023-05-06T02:32:01.138Z,5.03
2023-05-06T02:37:04.974Z,5.40
2023-05-06T02:42:09.898Z,5.67
2023-05-06T02:47:13.684Z,5.27
2023-05-06T02:52:17.098Z,5.10
2023-05-06T02:57:22.198Z,5.40
2023-05-06T03:02:25.621Z,5.90
2023-05-06T03:07:29.064Z,5.60
2023-05-06T03:12:34.357Z,5.97
2023-05-06T03:17:38.996Z,5.87
2023-05-06T03:22:43.839Z,6.23
2023-05-06T03:27:49.137Z,6.27
2023-05-06T03:32:57.461Z,5.47
2023-05-06T03:38:07.036Z,5.63
2023-05-06T03:43:22.160Z,6.10
2023-05-06T03:48:30.130Z,9.27
2023-05-06T03:53:34.443Z,7.93
2023-05-06T03:58:41.439Z,6.93
2023-05-06T04:03:47.993Z,5.60
2023-05-06T04:08:51.650Z,6.37
2023-05-06T04:13:57.903Z,6.67
2023-05-06T04:19:01.964Z,8.97
2023-05-06T04:24:06.537Z,7.17
2023-05-06T04:29:15.554Z,6.10
2023-05-06T04:34:31.814Z,8.10
2023-05-06T04:39:39.443Z,6.07
2023-05-06T04:44:45.640Z,5.57
2023-05-06T04:49:49.686Z,6.00
2023-05-06T04:54:53.918Z,4.97
2023-05-06T04:59:58.837Z,5.10
2023-05-06T05:05:03.343Z,4.77
2023-05-06T05:10:10.510Z,4.63
2023-05-06T05:15:17.230Z,4.80
2023-05-06T05:20:21.192Z,5.07
2023-05-06T05:25:24.926Z,4.50
2023-05-06T05:30:30.054Z,4.53
2023-05-06T05:35:34.110Z,5.10
2023-05-06T05:40:37.979Z,4.93
2023-05-06T05:45:43.862Z,4.67
2023-05-06T05:50:48.450Z,4.30
2023-05-06T05:55:54.157Z,4.50
2023-05-06T06:00:59.474Z,4.87
2023-05-06T06:06:03.894Z,4.50
2023-05-06T06:11:08.766Z,4.70
2023-05-06T06:16:18.034Z,4.67
2023-05-06T06:21:21.903Z,4.50
2023-05-06T06:26:25.853Z,4.10
2023-05-06T06:31:31.232Z,4.33
2023-05-06T06:36:34.942Z,4.67
2023-05-06T06:41:38.330Z,4.20
2023-05-06T06:46:43.282Z,4.50
2023-05-06T06:51:47.088Z,4.30
2023-05-06T06:56:51.013Z,4.30
2023-05-06T07:01:56.132Z,4.30
2023-05-06T07:06:59.975Z,4.63
2023-05-06T07:12:03.529Z,4.20
2023-05-06T07:17:08.408Z,4.15
2023-05-06T07:22:12.208Z,4.03
2023-05-06T07:27:15.772Z,4.00
2023-05-06T07:32:21.064Z,3.90
2023-05-06T07:37:24.755Z,4.32
2023-05-06T07:42:28.219Z,3.95
2023-05-06T07:47:33.801Z,3.90
2023-05-06T07:52:37.406Z,4.47
2023-05-06T07:57:41.117Z,3.95
2023-05-06T08:02:47.472Z,3.88
2023-05-06T08:07:51.733Z,3.83
2023-05-06T08:12:55.245Z,3.80
2023-05-06T08:18:10.212Z,4.55
2023-05-06T08:23:22.238Z,3.60
2023-05-06T08:28:26.004Z,3.92
2023-05-06T08:33:31.914Z,3.80
2023-05-06T08:38:35.679Z,3.92
2023-05-06T08:43:45.930Z,3.25
2023-05-06T08:48:52.136Z,3.80
2023-05-06T08:54:03.767Z,3.58
2023-05-06T08:59:09.730Z,3.60
2023-05-06T09:04:19.741Z,3.90
2023-05-06T09:09:26.908Z,3.35
2023-05-06T09:14:44.916Z,3.38
2023-05-06T09:19:54.424Z,3.42
2023-05-06T09:25:00.562Z,3.15
2023-05-06T09:30:09.896Z,3.50
2023-05-06T09:35:18.870Z,2.85
2023-05-06T09:40:36.238Z,2.72
2023-05-06T09:45:45.097Z,2.63
2023-05-06T09:50:52.903Z,2.22
2023-05-06T09:56:00.982Z,2.60
2023-05-06T10:01:15.161Z,2.10
2023-05-06T10:06:26.561Z,2.53
2023-05-06T10:11:39.159Z,2.53
2023-05-06T10:16:47.345Z,3.00
2023-05-06T10:22:04.472Z,2.08
2023-05-06T10:27:17.145Z,2.45
2023-05-06T10:32:32.909Z,2.22
2023-05-06T10:37:42.833Z,2.35
2023-05-06T10:42:47.510Z,2.25
2023-05-06T10:48:13.341Z,2.65
2023-05-06T10:53:59.786Z,2.60
2023-05-06T10:59:15.428Z,2.85
2023-05-06T11:04:38.298Z,2.42
2023-05-06T11:16:12.806Z,2.83
2023-05-06T11:21:51.131Z,3.05
2023-05-06T11:27:27.916Z,2.95
2023-05-06T11:44:58.956Z,2.55
2023-05-06T11:50:08.955Z,2.90
2023-05-06T11:55:14.791Z,2.80
2023-05-06T12:00:33.894Z,2.95
2023-05-06T12:05:42.996Z,2.85
2023-05-06T12:11:07.026Z,2.95
2023-05-06T12:16:13.372Z,2.75
2023-05-06T12:21:33.130Z,2.90
2023-05-06T12:26:52.132Z,3.28
2023-05-06T12:32:16.379Z,3.00
2023-05-06T12:37:31.594Z,3.50
2023-05-06T12:42:36.676Z,3.38
2023-05-06T12:47:54.490Z,3.10
2023-05-06T12:53:07.528Z,3.45
2023-05-06T12:58:24.120Z,4.65
2023-05-06T13:03:34.529Z,3.42
2023-05-06T13:08:55.525Z,2.70
2023-05-06T13:14:00.482Z,2.88
2023-05-06T13:19:30.783Z,2.50
2023-05-06T13:24:39.249Z,2.60
2023-05-06T13:29:52.926Z,2.90
2023-05-06T13:34:59.284Z,2.78
2023-05-06T13:40:08.097Z,2.60
2023-05-06T13:45:15.350Z,2.55
2023-05-06T13:50:24.136Z,2.58
2023-05-06T13:55:41.326Z,2.85
2023-05-06T14:00:48.972Z,5.63
2023-05-06T14:05:58.113Z,2.88
2023-05-06T14:11:05.045Z,2.25
2023-05-06T14:16:13.979Z,2.67
2023-05-06T14:21:23.268Z,3.10
2023-05-06T14:26:36.020Z,2.42
2023-05-06T14:31:54.298Z,6.03
2023-05-06T14:37:12.026Z,3.53
2023-05-06T14:42:16.027Z,3.58
2023-05-06T14:47:21.112Z,2.75
2023-05-06T14:52:35.431Z,2.53
2023-05-06T14:57:43.376Z,2.88
2023-05-06T15:02:52.671Z,2.50
2023-05-06T15:08:01.492Z,2.57
2023-05-06T15:13:09.338Z,3.03
2023-05-06T15:18:27.666Z,3.20
2023-05-06T15:23:33.976Z,3.50
2023-05-06T15:28:45.603Z,2.80
2023-05-06T15:33:54.136Z,3.60
2023-05-06T15:39:04.045Z,3.07
2023-05-06T15:44:11.371Z,2.80
2023-05-06T15:49:47.243Z,3.67
2023-05-06T15:54:59.461Z,2.70
2023-05-06T16:00:10.547Z,2.83
2023-05-06T16:05:15.356Z,3.97
2023-05-06T16:10:33.354Z,3.23
2023-05-06T16:15:44.970Z,3.00
2023-05-06T16:20:54.932Z,3.27
2023-05-06T16:26:05.458Z,3.33
2023-05-06T16:31:30.952Z,3.30
2023-05-06T16:36:43.856Z,3.80
2023-05-06T16:41:57.796Z,3.47
2023-05-06T16:47:05.615Z,3.40
2023-05-06T16:52:15.586Z,3.90
2023-05-06T16:57:23.929Z,4.43
2023-05-06T17:07:55.693Z,4.30
2023-05-06T17:13:08.360Z,4.10
2023-05-06T17:18:26.262Z,4.13
2023-05-06T17:23:40.873Z,4.13
2023-05-06T17:28:50.931Z,4.50
2023-05-06T17:34:02.464Z,4.40
2023-05-06T17:39:08.653Z,4.70
2023-05-06T17:44:17.059Z,4.23
2023-05-06T17:49:21.144Z,4.33
2023-05-06T17:54:27.828Z,3.80
2023-05-06T17:59:44.771Z,4.00
2023-05-06T18:04:50.299Z,3.70
2023-05-06T18:10:05.856Z,3.37
2023-05-06T18:15:18.348Z,2.60
2023-05-06T18:20:22.578Z,2.20
2023-05-06T18:25:28.408Z,2.47
2023-05-06T18:30:35.398Z,1.80
2023-05-06T18:35:43.156Z,2.13
2023-05-06T18:40:51.737Z,1.67
2023-05-06T18:46:07.366Z,2.10
2023-05-06T18:51:22.288Z,1.83
2023-05-06T18:56:31.797Z,2.10
2023-05-06T19:01:37.515Z,2.13
2023-05-06T19:06:47.405Z,2.20
2023-05-06T19:12:01.452Z,1.70
2023-05-06T19:17:07.349Z,2.13
2023-05-06T19:22:11.321Z,2.40
2023-05-06T19:27:17.407Z,2.60
2023-05-06T19:32:55.540Z,2.57
2023-05-06T19:38:15.911Z,3.60
2023-05-06T19:43:28.819Z,3.10
2023-05-06T19:48:41.739Z,3.10
2023-05-06T19:53:47.112Z,3.57
2023-05-06T19:58:51.681Z,2.37
2023-05-06T20:03:59.980Z,3.20
2023-05-06T20:09:12.643Z,2.90
2023-05-06T20:14:31.553Z,2.87
2023-05-06T20:19:38.695Z,3.50
2023-05-06T20:24:45.207Z,3.70
2023-05-06T20:29:52.985Z,4.10
2023-05-06T20:35:00.763Z,4.20
2023-05-06T20:40:06.903Z,4.63
2023-05-06T20:45:15.125Z,2.90
2023-05-06T20:50:21.377Z,3.20
2023-05-06T20:55:31.198Z,2.80
2023-05-06T21:00:38.468Z,3.03
2023-05-06T21:05:44.675Z,3.03
2023-05-06T21:10:48.951Z,2.63
2023-05-06T21:16:03.072Z,3.40
2023-05-06T21:21:09.989Z,2.90
2023-05-06T21:26:13.976Z,2.77
2023-05-06T21:31:22.881Z,3.53
2023-05-06T21:36:40.912Z,2.67
2023-05-06T21:41:47.462Z,2.40
2023-05-06T21:46:53.739Z,3.70
2023-05-06T21:52:06.788Z,3.13
2023-05-06T21:57:15.152Z,2.43
2023-05-06T22:02:28.368Z,2.53
2023-05-06T22:07:34.480Z,2.40
2023-05-06T22:12:41.633Z,2.63
2023-05-06T22:17:55.637Z,2.10
2023-05-06T22:23:09.704Z,2.30
2023-05-06T22:28:23.878Z,2.87
2023-05-06T22:33:32.588Z,2.40
2023-05-06T22:38:45.692Z,2.30
2023-05-06T22:43:58.282Z,2.40
2023-05-06T22:49:03.428Z,2.40
2023-05-06T22:54:28.878Z,2.50
2023-05-06T22:59:47.628Z,2.50
2023-05-06T23:04:54.614Z,2.70
2023-05-06T23:10:03.646Z,2.40
2023-05-06T23:15:12.574Z,2.53
2023-05-06T23:20:21.430Z,3.77
2023-05-06T23:25:37.841Z,2.50
2023-05-06T23:30:51.620Z,2.53
2023-05-06T23:36:00.046Z,3.00
2023-05-06T23:41:14.572Z,3.10
2023-05-06T23:46:30.328Z,3.00
2023-05-06T23:51:34.506Z,3.00
2023-05-06T23:56:42.250Z,3.00
